createdAt,value
2022-08-26T00:00:31.068Z,11.90
2022-08-26T00:01:13.436Z,12.03
2022-08-26T00:01:56.243Z,10.48
2022-08-26T00:02:38.113Z,12.63
2022-08-26T00:03:20.376Z,7.88
2022-08-26T00:04:02.515Z,12.00
2022-08-26T00:04:44.282Z,13.65
2022-08-26T00:05:26.539Z,7.15
2022-08-26T00:06:09.014Z,10.77
2022-08-26T00:06:55.830Z,10.77
2022-08-26T00:07:37.755Z,11.73
2022-08-26T00:08:21.203Z,10.00
2022-08-26T00:09:04.100Z,9.15
2022-08-26T00:09:50.011Z,9.15
2022-08-26T00:10:32.014Z,8.73
2022-08-26T00:11:14.470Z,9.10
2022-08-26T00:11:56.463Z,10.30
2022-08-26T00:12:40.553Z,11.00
2022-08-26T00:13:23.081Z,11.73
2022-08-26T00:14:05.124Z,12.38
2022-08-26T00:14:46.813Z,14.90
2022-08-26T00:15:28.597Z,16.67
2022-08-26T00:16:11.712Z,10.43
2022-08-26T00:16:53.681Z,11.05
2022-08-26T00:17:37.013Z,11.73
2022-08-26T00:18:22.821Z,11.68
2022-08-26T00:19:04.778Z,11.82
2022-08-26T00:19:47.326Z,12.10
2022-08-26T00:20:33.622Z,13.45
2022-08-26T00:21:15.705Z,12.32
2022-08-26T00:21:57.394Z,11.48
2022-08-26T00:22:39.142Z,11.88
2022-08-26T00:23:24.197Z,12.90
2022-08-26T00:24:06.268Z,13.55
2022-08-26T00:24:48.173Z,12.30
2022-08-26T00:25:30.396Z,13.45
2022-08-26T00:26:13.494Z,17.08
2022-08-26T00:26:55.172Z,16.63
2022-08-26T00:27:37.011Z,16.98
2022-08-26T00:28:20.875Z,16.63
2022-08-26T00:29:03.981Z,19.90
2022-08-26T00:29:46.881Z,19.45
2022-08-26T00:30:30.536Z,19.60
2022-08-26T00:31:12.774Z,19.13
2022-08-26T00:31:54.686Z,22.23
2022-08-26T00:32:37.560Z,21.48
2022-08-26T00:33:22.949Z,22.77
2022-08-26T00:34:04.888Z,24.20
2022-08-26T00:34:47.025Z,26.10
2022-08-26T00:35:30.478Z,25.90
2022-08-26T00:36:20.257Z,26.98
2022-08-26T00:37:02.352Z,29.52
2022-08-26T00:37:45.633Z,30.48
2022-08-26T00:38:28.631Z,29.38
2022-08-26T00:39:11.601Z,28.52
2022-08-26T00:39:53.496Z,31.25
2022-08-26T00:40:38.880Z,35.50
2022-08-26T00:41:20.650Z,37.95
2022-08-26T00:42:02.409Z,33.60
2022-08-26T00:42:46.054Z,35.30
2022-08-26T00:43:46.454Z,36.53
2022-08-26T00:44:29.950Z,38.72
2022-08-26T00:45:14.570Z,37.38
2022-08-26T00:46:29.141Z,37.92
2022-08-26T00:47:40.908Z,42.78
2022-08-26T00:48:27.805Z,41.83
2022-08-26T00:49:17.998Z,43.75
2022-08-26T00:50:02.440Z,42.83
2022-08-26T00:50:50.902Z,43.75
2022-08-26T00:51:34.604Z,47.97
2022-08-26T00:52:21.117Z,45.92
2022-08-26T00:53:23.832Z,43.38
2022-08-26T00:54:10.688Z,46.45
2022-08-26T00:55:27.443Z,49.92
2022-08-26T00:56:36.187Z,49.45
2022-08-26T00:57:19.914Z,51.90
2022-08-26T00:58:02.980Z,49.15
2022-08-26T00:58:47.998Z,48.63
2022-08-26T00:59:32.766Z,51.83
2022-08-26T01:00:21.343Z,51.60
2022-08-26T01:01:03.413Z,53.38
2022-08-26T01:01:45.905Z,54.25
2022-08-26T01:02:28.893Z,51.35
2022-08-26T01:03:12.858Z,50.95
2022-08-26T01:03:56.295Z,53.00
2022-08-26T01:04:39.750Z,53.33
2022-08-26T01:05:21.571Z,51.95
2022-08-26T01:06:03.942Z,52.75
2022-08-26T01:06:48.010Z,55.00
2022-08-26T01:07:31.254Z,55.50
2022-08-26T01:08:13.190Z,53.95
2022-08-26T01:08:54.952Z,55.15
2022-08-26T01:09:38.247Z,53.72
2022-08-26T01:10:25.844Z,53.88
2022-08-26T01:11:09.214Z,54.50
2022-08-26T01:11:55.236Z,56.88
2022-08-26T01:12:42.406Z,57.97
2022-08-26T01:13:24.828Z,59.97
2022-08-26T01:14:07.565Z,55.60
2022-08-26T01:14:50.086Z,57.70
2022-08-26T01:15:40.062Z,57.00
2022-08-26T01:16:26.996Z,59.60
2022-08-26T01:17:09.505Z,59.03
2022-08-26T01:17:51.628Z,58.75
2022-08-26T01:18:35.884Z,60.50
2022-08-26T01:19:32.987Z,57.67
2022-08-26T01:20:29.615Z,60.30
2022-08-26T01:21:35.966Z,60.72
2022-08-26T01:22:50.397Z,58.83
2022-08-26T01:23:38.273Z,58.47
2022-08-26T01:24:20.070Z,61.95
2022-08-26T01:25:03.557Z,61.85
2022-08-26T01:25:50.664Z,62.25
2022-08-26T01:26:36.693Z,59.75
2022-08-26T01:27:20.559Z,63.45
2022-08-26T01:28:08.961Z,65.30
2022-08-26T01:28:56.598Z,64.95
2022-08-26T01:29:40.874Z,63.08
2022-08-26T01:30:22.766Z,63.47
2022-08-26T01:31:07.774Z,64.50
2022-08-26T01:31:55.305Z,62.17
2022-08-26T01:32:38.973Z,62.20
2022-08-26T01:34:00.745Z,61.55
2022-08-26T01:34:42.590Z,61.92
2022-08-26T01:35:24.812Z,61.63
2022-08-26T01:36:07.586Z,65.03
2022-08-26T01:36:54.457Z,66.72
2022-08-26T01:37:39.153Z,66.88
2022-08-26T01:38:23.738Z,66.07
2022-08-26T01:39:07.208Z,65.55
2022-08-26T01:39:55.210Z,65.53
2022-08-26T01:40:39.129Z,64.43
2022-08-26T01:41:27.534Z,66.05
2022-08-26T01:42:14.599Z,65.28
2022-08-26T01:42:56.772Z,64.18
2022-08-26T01:43:39.657Z,61.50
2022-08-26T01:44:24.339Z,61.30
2022-08-26T01:45:12.275Z,60.08
2022-08-26T01:45:56.825Z,62.30
2022-08-26T01:46:38.600Z,61.85
2022-08-26T01:47:23.446Z,63.00
2022-08-26T01:48:11.513Z,61.17
2022-08-26T01:48:56.770Z,59.70
2022-08-26T01:49:40.081Z,63.55
2022-08-26T01:50:30.285Z,60.50
2022-08-26T01:51:13.923Z,62.78
2022-08-26T01:51:58.426Z,64.75
2022-08-26T01:52:43.814Z,61.80
2022-08-26T01:53:26.896Z,59.35
2022-08-26T01:54:13.764Z,61.67
2022-08-26T01:54:58.244Z,60.17
2022-08-26T01:55:46.311Z,60.95
2022-08-26T01:56:33.393Z,60.65
2022-08-26T01:57:19.964Z,60.60
2022-08-26T01:58:05.741Z,58.15
2022-08-26T01:58:59.471Z,60.45
2022-08-26T01:59:41.434Z,59.70
2022-08-26T02:00:25.360Z,58.40
2022-08-26T02:01:10.006Z,58.30
2022-08-26T02:01:53.607Z,59.08
2022-08-26T02:02:35.530Z,59.72
2022-08-26T02:03:18.781Z,59.90
2022-08-26T02:04:09.961Z,58.55
2022-08-26T02:04:58.211Z,61.80
2022-08-26T02:05:40.497Z,58.70
2022-08-26T02:06:25.345Z,57.83
2022-08-26T02:07:09.272Z,58.90
2022-08-26T02:07:51.065Z,59.15
2022-08-26T02:08:41.115Z,61.33
2022-08-26T02:09:24.454Z,57.80
2022-08-26T02:10:07.906Z,58.75
2022-08-26T02:10:50.325Z,56.50
2022-08-26T02:11:36.802Z,57.45
2022-08-26T02:12:20.273Z,56.60
2022-08-26T02:13:02.150Z,56.42
2022-08-26T02:13:50.833Z,56.70
2022-08-26T02:14:43.762Z,56.80
2022-08-26T02:15:26.454Z,56.58
2022-08-26T02:16:08.980Z,58.53
2022-08-26T02:16:53.038Z,57.22
2022-08-26T02:17:41.973Z,55.00
2022-08-26T02:18:24.779Z,57.08
2022-08-26T02:19:17.115Z,57.50
2022-08-26T02:19:59.361Z,54.38
2022-08-26T02:20:41.103Z,51.75
2022-08-26T02:21:22.877Z,52.70
2022-08-26T02:22:11.538Z,52.90
2022-08-26T02:22:53.270Z,51.33
2022-08-26T02:23:35.278Z,51.60
2022-08-26T02:24:28.581Z,50.80
2022-08-26T02:25:26.987Z,49.92
2022-08-26T02:26:16.511Z,51.10
2022-08-26T02:27:00.593Z,50.28
2022-08-26T02:27:42.368Z,49.70
2022-08-26T02:28:27.904Z,51.53
2022-08-26T02:29:22.404Z,51.55
2022-08-26T02:30:13.018Z,50.80
2022-08-26T02:30:55.639Z,50.97
2022-08-26T02:31:37.633Z,53.53
2022-08-26T02:32:19.807Z,52.05
2022-08-26T02:33:03.691Z,52.00
2022-08-26T02:33:45.443Z,52.30
2022-08-26T02:34:31.360Z,54.25
2022-08-26T02:35:20.094Z,52.35
2022-08-26T02:36:02.145Z,52.42
2022-08-26T02:36:45.262Z,50.30
2022-08-26T02:37:30.321Z,50.33
2022-08-26T02:38:12.026Z,51.78
2022-08-26T02:38:53.951Z,50.17
2022-08-26T02:39:40.082Z,48.63
2022-08-26T02:40:27.118Z,49.22
2022-08-26T02:41:10.101Z,47.45
2022-08-26T02:41:52.133Z,47.40
2022-08-26T02:42:34.335Z,48.08
2022-08-26T02:43:17.002Z,47.95
2022-08-26T02:43:59.653Z,48.58
2022-08-26T02:44:41.330Z,48.05
2022-08-26T02:45:23.865Z,47.15
2022-08-26T02:46:05.940Z,45.50
2022-08-26T02:46:48.301Z,47.80
2022-08-26T02:47:32.705Z,51.20
2022-08-26T02:48:17.187Z,50.00
2022-08-26T02:49:01.231Z,47.75
2022-08-26T02:49:44.278Z,46.17
2022-08-26T02:50:26.837Z,47.70
2022-08-26T02:51:08.535Z,46.30
2022-08-26T02:51:50.913Z,51.53
2022-08-26T02:52:33.658Z,45.05
2022-08-26T02:53:16.957Z,45.83
2022-08-26T02:54:06.472Z,48.80
2022-08-26T02:54:49.639Z,47.55
2022-08-26T02:55:32.145Z,46.42
2022-08-26T02:56:13.853Z,46.47
2022-08-26T02:56:56.270Z,48.38
2022-08-26T02:57:38.128Z,46.60
2022-08-26T02:58:20.584Z,46.08
2022-08-26T02:59:03.261Z,44.97
2022-08-26T02:59:45.638Z,47.13
2022-08-26T03:00:27.791Z,45.05
2022-08-26T03:01:21.025Z,45.58
2022-08-26T03:02:03.746Z,45.35
2022-08-26T03:02:46.426Z,48.63
2022-08-26T03:03:28.280Z,49.45
2022-08-26T03:04:12.368Z,51.95
2022-08-26T03:04:57.875Z,49.72
2022-08-26T03:05:44.542Z,45.45
2022-08-26T03:06:26.406Z,46.00
2022-08-26T03:07:08.130Z,47.00
2022-08-26T03:07:50.337Z,47.20
2022-08-26T03:08:32.000Z,48.40
2022-08-26T03:09:18.855Z,49.28
2022-08-26T03:10:00.758Z,47.90
2022-08-26T03:10:42.482Z,49.72
2022-08-26T03:11:24.817Z,50.42
2022-08-26T03:12:07.482Z,47.38
2022-08-26T03:12:49.495Z,49.28
2022-08-26T03:13:34.200Z,47.88
2022-08-26T03:14:15.975Z,48.33
2022-08-26T03:14:57.696Z,51.63
2022-08-26T03:15:40.259Z,53.30
2022-08-26T03:16:22.019Z,49.75
2022-08-26T03:17:05.889Z,48.63
2022-08-26T03:17:49.107Z,48.65
2022-08-26T03:18:32.741Z,48.38
2022-08-26T03:19:14.426Z,46.88
2022-08-26T03:19:59.346Z,49.95
2022-08-26T03:20:41.063Z,49.20
2022-08-26T03:21:22.778Z,47.92
2022-08-26T03:22:04.857Z,46.58
2022-08-26T03:22:46.630Z,46.35
2022-08-26T03:23:28.326Z,46.30
2022-08-26T03:24:11.382Z,46.20
2022-08-26T03:24:53.229Z,45.30
2022-08-26T03:25:34.909Z,46.35
2022-08-26T03:26:17.062Z,48.20
2022-08-26T03:26:58.793Z,49.15
2022-08-26T03:27:40.881Z,50.20
2022-08-26T03:28:24.795Z,49.72
2022-08-26T03:29:27.426Z,47.78
2022-08-26T03:30:34.542Z,49.70
2022-08-26T03:31:16.841Z,50.20
2022-08-26T03:32:00.153Z,50.50
2022-08-26T03:32:41.875Z,52.40
2022-08-26T03:33:25.393Z,50.90
2022-08-26T03:34:07.101Z,50.72
2022-08-26T03:34:48.887Z,54.00
2022-08-26T03:35:32.773Z,51.13
2022-08-26T03:36:15.354Z,48.92
2022-08-26T03:36:57.362Z,51.40
2022-08-26T03:37:39.762Z,48.90
2022-08-26T03:38:25.000Z,48.63
2022-08-26T03:39:07.113Z,52.67
2022-08-26T03:39:49.354Z,49.45
2022-08-26T03:40:33.717Z,49.70
2022-08-26T03:41:15.625Z,53.15
2022-08-26T03:41:58.691Z,54.22
2022-08-26T03:42:41.444Z,51.22
2022-08-26T03:43:27.531Z,55.78
2022-08-26T03:44:09.221Z,56.47
2022-08-26T03:44:51.517Z,58.63
2022-08-26T03:45:33.929Z,56.47
2022-08-26T03:46:16.364Z,54.10
2022-08-26T03:46:58.142Z,53.13
2022-08-26T03:47:41.157Z,56.50
2022-08-26T03:48:22.877Z,53.95
2022-08-26T03:49:06.048Z,52.97
2022-08-26T03:49:48.267Z,56.03
2022-08-26T03:50:31.039Z,54.53
2022-08-26T03:51:19.595Z,51.38
2022-08-26T03:52:03.056Z,54.78
2022-08-26T03:52:46.998Z,54.92
2022-08-26T03:53:28.866Z,50.83
2022-08-26T03:54:10.673Z,48.00
2022-08-26T03:54:53.129Z,51.97
2022-08-26T03:55:35.125Z,52.85
2022-08-26T03:56:16.835Z,52.90
2022-08-26T03:56:59.083Z,55.63
2022-08-26T03:57:41.297Z,56.53
2022-08-26T03:58:25.257Z,50.78
2022-08-26T03:59:07.592Z,51.30
2022-08-26T03:59:49.511Z,54.53
2022-08-26T04:00:33.669Z,55.38
2022-08-26T04:01:16.458Z,49.33
2022-08-26T04:01:58.372Z,51.70
2022-08-26T04:02:40.618Z,48.67
2022-08-26T04:03:42.627Z,48.78
2022-08-26T04:04:24.506Z,49.28
2022-08-26T04:05:06.877Z,48.30
2022-08-26T04:05:52.160Z,49.10
2022-08-26T04:06:37.253Z,47.95
2022-08-26T04:07:19.216Z,52.30
2022-08-26T04:08:00.986Z,48.22
2022-08-26T04:08:43.101Z,47.55
2022-08-26T04:09:25.594Z,48.15
2022-08-26T04:10:08.667Z,47.60
2022-08-26T04:10:51.530Z,48.13
2022-08-26T04:11:35.938Z,51.00
2022-08-26T04:12:20.951Z,47.33
2022-08-26T04:13:02.752Z,51.67
2022-08-26T04:13:47.314Z,49.17
2022-08-26T04:14:29.823Z,48.00
2022-08-26T04:15:15.147Z,51.38
2022-08-26T04:15:57.530Z,46.35
2022-08-26T04:16:39.881Z,43.90
2022-08-26T04:17:25.088Z,47.08
2022-08-26T04:18:06.895Z,46.03
2022-08-26T04:18:48.706Z,46.03
2022-08-26T04:19:32.724Z,46.50
2022-08-26T04:20:16.109Z,47.55
2022-08-26T04:20:58.110Z,49.95
2022-08-26T04:21:41.279Z,46.53
2022-08-26T04:22:24.167Z,43.05
2022-08-26T04:23:06.925Z,43.58
2022-08-26T04:23:49.653Z,42.85
2022-08-26T04:24:31.471Z,42.40
2022-08-26T04:25:13.437Z,43.17
2022-08-26T04:25:55.198Z,42.80
2022-08-26T04:26:39.509Z,44.47
2022-08-26T04:27:24.751Z,44.13
2022-08-26T04:28:07.078Z,43.33
2022-08-26T04:28:50.585Z,44.47
2022-08-26T04:29:32.665Z,42.72
2022-08-26T04:30:15.178Z,40.05
2022-08-26T04:30:58.473Z,39.28
2022-08-26T04:31:41.274Z,39.80
2022-08-26T04:32:23.414Z,42.38
2022-08-26T04:33:13.029Z,39.92
2022-08-26T04:33:56.605Z,40.35
2022-08-26T04:34:39.063Z,41.20
2022-08-26T04:35:25.691Z,39.88
2022-08-26T04:36:08.422Z,41.88
2022-08-26T04:36:51.359Z,40.58
2022-08-26T04:37:33.517Z,39.97
2022-08-26T04:38:16.159Z,42.38
2022-08-26T04:39:00.525Z,42.70
2022-08-26T04:39:42.429Z,39.10
2022-08-26T04:40:27.560Z,41.85
2022-08-26T04:41:15.236Z,40.80
2022-08-26T04:41:58.740Z,40.60
2022-08-26T04:42:40.574Z,39.17
2022-08-26T04:43:22.314Z,40.33
2022-08-26T04:44:06.375Z,37.25
2022-08-26T04:44:48.066Z,40.30
2022-08-26T04:45:29.791Z,42.05
2022-08-26T04:46:13.058Z,39.97
2022-08-26T04:46:56.578Z,40.95
2022-08-26T04:47:38.388Z,39.60
2022-08-26T04:48:20.127Z,39.75
2022-08-26T04:49:02.346Z,40.13
2022-08-26T04:49:44.069Z,34.75
2022-08-26T04:50:25.842Z,34.05
2022-08-26T04:51:09.968Z,34.35
2022-08-26T04:51:52.746Z,36.55
2022-08-26T04:52:36.212Z,37.85
2022-08-26T04:53:18.017Z,33.53
2022-08-26T04:53:59.855Z,36.53
2022-08-26T04:54:42.138Z,40.22
2022-08-26T04:55:25.207Z,37.50
2022-08-26T04:56:19.868Z,36.25
2022-08-26T04:57:02.482Z,35.38
2022-08-26T04:57:44.224Z,35.35
2022-08-26T04:58:26.130Z,35.63
2022-08-26T04:59:17.184Z,35.22
2022-08-26T05:00:00.557Z,32.42
2022-08-26T05:00:46.922Z,35.90
2022-08-26T05:01:29.913Z,33.67
2022-08-26T05:02:11.851Z,34.47
2022-08-26T05:02:53.930Z,36.20
2022-08-26T05:03:36.430Z,33.90
2022-08-26T05:04:20.128Z,33.72
2022-08-26T05:05:02.442Z,33.55
2022-08-26T05:05:45.818Z,34.40
2022-08-26T05:06:28.210Z,32.95
2022-08-26T05:07:17.705Z,31.33
2022-08-26T05:07:59.503Z,32.30
2022-08-26T05:08:41.382Z,31.85
2022-08-26T05:09:23.316Z,32.13
2022-08-26T05:10:08.714Z,30.65
2022-08-26T05:10:57.295Z,33.28
2022-08-26T05:11:39.098Z,33.42
2022-08-26T05:12:20.849Z,33.97
2022-08-26T05:13:03.655Z,36.33
2022-08-26T05:13:52.495Z,32.80
2022-08-26T05:14:34.242Z,30.92
2022-08-26T05:15:16.087Z,32.67
2022-08-26T05:16:03.292Z,30.05
2022-08-26T05:16:45.106Z,28.45
2022-08-26T05:17:29.735Z,32.17
2022-08-26T05:18:13.766Z,32.95
2022-08-26T05:18:55.472Z,30.92
2022-08-26T05:19:37.408Z,31.08
2022-08-26T05:20:26.213Z,28.67
2022-08-26T05:21:08.204Z,34.25
2022-08-26T05:21:50.190Z,33.17
2022-08-26T05:22:32.019Z,29.08
2022-08-26T05:23:14.760Z,28.98
2022-08-26T05:23:57.098Z,30.23
2022-08-26T05:24:38.861Z,31.80
2022-08-26T05:25:21.278Z,27.17
2022-08-26T05:26:08.027Z,27.52
2022-08-26T05:26:49.869Z,26.17
2022-08-26T05:27:31.577Z,27.92
2022-08-26T05:28:17.327Z,30.92
2022-08-26T05:28:59.546Z,32.53
2022-08-26T05:29:42.030Z,27.48
2022-08-26T05:30:24.182Z,27.58
2022-08-26T05:31:16.396Z,30.67
2022-08-26T05:32:00.695Z,31.50
2022-08-26T05:32:42.422Z,28.33
2022-08-26T05:33:24.584Z,29.25
2022-08-26T05:34:07.018Z,33.83
2022-08-26T05:34:55.305Z,30.45
2022-08-26T05:35:38.260Z,26.38
2022-08-26T05:36:22.478Z,25.63
2022-08-26T05:37:05.426Z,28.55
2022-08-26T05:37:47.133Z,29.88
2022-08-26T05:38:30.291Z,25.05
2022-08-26T05:39:12.702Z,26.42
2022-08-26T05:39:54.637Z,29.92
2022-08-26T05:40:40.982Z,29.08
2022-08-26T05:41:36.133Z,30.30
2022-08-26T05:42:19.783Z,26.80
2022-08-26T05:43:02.019Z,27.90
2022-08-26T05:43:44.078Z,29.02
2022-08-26T05:44:25.852Z,33.20
2022-08-26T05:45:08.476Z,31.48
2022-08-26T05:45:50.697Z,28.15
2022-08-26T05:46:34.567Z,26.20
2022-08-26T05:47:16.408Z,25.00
2022-08-26T05:47:58.783Z,27.92
2022-08-26T05:48:41.337Z,28.25
2022-08-26T05:49:26.482Z,28.27
2022-08-26T05:50:08.774Z,28.48
2022-08-26T05:50:52.174Z,28.05
2022-08-26T05:51:34.942Z,26.35
2022-08-26T05:52:17.262Z,31.30
2022-08-26T05:52:59.062Z,28.20
2022-08-26T05:53:43.906Z,28.05
2022-08-26T05:54:39.169Z,25.92
2022-08-26T05:55:21.253Z,25.85
2022-08-26T05:56:05.153Z,23.95
2022-08-26T05:56:46.893Z,24.13
2022-08-26T05:57:29.691Z,22.55
2022-08-26T05:58:12.446Z,23.25
2022-08-26T05:58:55.628Z,26.20
2022-08-26T05:59:37.707Z,24.15
2022-08-26T06:00:21.918Z,29.27
2022-08-26T06:01:05.794Z,26.70
2022-08-26T06:01:47.575Z,24.85
2022-08-26T06:02:29.419Z,23.20
2022-08-26T06:03:11.479Z,21.23
2022-08-26T06:03:57.572Z,20.90
2022-08-26T06:04:41.542Z,22.27
2022-08-26T06:05:24.397Z,20.52
2022-08-26T06:06:09.772Z,22.10
2022-08-26T06:06:52.411Z,23.95
2022-08-26T06:07:54.075Z,25.42
2022-08-26T06:08:37.181Z,20.15
2022-08-26T06:09:18.927Z,24.00
2022-08-26T06:10:28.329Z,26.50
2022-08-26T06:11:05.716Z,24.70
2022-08-26T06:11:47.402Z,21.17
2022-08-26T06:12:29.290Z,21.55
2022-08-26T06:13:12.431Z,20.65
2022-08-26T06:14:00.061Z,21.60
2022-08-26T06:14:44.379Z,21.67
2022-08-26T06:15:26.257Z,18.88
2022-08-26T06:16:12.033Z,17.17
2022-08-26T06:16:54.359Z,19.75
2022-08-26T06:17:36.062Z,18.05
2022-08-26T06:18:21.159Z,18.83
2022-08-26T06:19:10.900Z,21.23
2022-08-26T06:19:53.089Z,21.00
2022-08-26T06:20:36.616Z,22.05
2022-08-26T06:21:26.262Z,25.17
2022-08-26T06:22:28.077Z,22.48
2022-08-26T06:23:33.421Z,17.25
2022-08-26T06:24:33.907Z,19.05
2022-08-26T06:25:38.977Z,21.00
2022-08-26T06:26:20.757Z,21.23
2022-08-26T06:27:08.233Z,18.95
2022-08-26T06:27:50.906Z,19.00
2022-08-26T06:28:33.293Z,19.13
2022-08-26T06:29:16.388Z,21.15
2022-08-26T06:30:06.749Z,22.05
2022-08-26T06:30:48.818Z,22.08
2022-08-26T06:31:33.501Z,18.02
2022-08-26T06:32:16.273Z,19.38
2022-08-26T06:32:58.196Z,17.02
2022-08-26T06:33:40.746Z,20.00
2022-08-26T06:34:22.855Z,19.27
2022-08-26T06:35:11.880Z,16.67
2022-08-26T06:35:54.462Z,22.20
2022-08-26T06:36:36.357Z,20.58
2022-08-26T06:37:19.577Z,25.02
2022-08-26T06:38:02.730Z,26.73
2022-08-26T06:38:47.065Z,18.58
2022-08-26T06:39:30.889Z,19.15
2022-08-26T06:40:13.123Z,17.52
2022-08-26T06:40:55.153Z,17.83
2022-08-26T06:41:43.159Z,18.65
2022-08-26T06:42:25.223Z,19.83
2022-08-26T06:43:07.111Z,19.20
2022-08-26T06:43:50.147Z,19.23
2022-08-26T06:44:32.400Z,18.00
2022-08-26T06:45:14.278Z,20.42
2022-08-26T06:46:08.902Z,18.17
2022-08-26T06:46:51.459Z,23.08
2022-08-26T06:47:33.707Z,20.55
2022-08-26T06:48:18.483Z,18.60
2022-08-26T06:49:00.604Z,20.90
2022-08-26T06:49:42.373Z,18.70
2022-08-26T06:50:26.203Z,20.33
2022-08-26T06:51:14.301Z,20.52
2022-08-26T06:51:59.716Z,20.05
2022-08-26T06:52:42.526Z,20.45
2022-08-26T06:53:24.373Z,22.97
2022-08-26T06:54:09.894Z,22.70
2022-08-26T06:54:51.778Z,22.23
2022-08-26T06:55:40.804Z,22.40
2022-08-26T06:56:24.876Z,18.67
2022-08-26T06:57:06.635Z,19.33
2022-08-26T06:57:48.822Z,19.23
2022-08-26T06:58:31.352Z,16.23
2022-08-26T06:59:15.292Z,19.85
2022-08-26T06:59:57.289Z,16.98
2022-08-26T07:00:39.929Z,17.98
2022-08-26T07:01:31.955Z,17.88
2022-08-26T07:02:14.653Z,21.70
2022-08-26T07:02:56.605Z,19.77
2022-08-26T07:03:39.709Z,15.10
2022-08-26T07:04:23.225Z,18.90
2022-08-26T07:05:06.421Z,20.83
2022-08-26T07:05:49.570Z,21.05
2022-08-26T07:06:40.591Z,16.25
2022-08-26T07:07:22.278Z,16.45
2022-08-26T07:08:05.540Z,16.90
2022-08-26T07:08:52.313Z,15.77
2022-08-26T07:09:35.361Z,17.35
2022-08-26T07:10:18.939Z,17.70
2022-08-26T07:11:05.854Z,17.17
2022-08-26T07:11:48.162Z,19.90
2022-08-26T07:12:30.986Z,20.15
2022-08-26T07:13:12.724Z,16.95
2022-08-26T07:13:54.934Z,16.58
2022-08-26T07:14:36.815Z,16.23
2022-08-26T07:15:18.712Z,16.80
2022-08-26T07:16:08.123Z,16.25
2022-08-26T07:16:51.670Z,16.45
2022-08-26T07:17:33.368Z,19.67
2022-08-26T07:18:17.129Z,16.80
2022-08-26T07:18:59.926Z,15.57
2022-08-26T07:19:46.357Z,19.30
2022-08-26T07:20:28.122Z,17.20
2022-08-26T07:21:13.464Z,19.65
2022-08-26T07:21:56.131Z,16.27
2022-08-26T07:22:38.551Z,20.95
2022-08-26T07:23:20.865Z,18.25
2022-08-26T07:24:04.525Z,18.55
2022-08-26T07:24:46.357Z,16.88
2022-08-26T07:25:28.106Z,17.33
2022-08-26T07:26:16.138Z,17.20
2022-08-26T07:27:02.713Z,17.85
2022-08-26T07:27:44.763Z,22.60
2022-08-26T07:28:26.518Z,19.13
2022-08-26T07:29:08.742Z,21.17
2022-08-26T07:29:50.642Z,18.23
2022-08-26T07:30:32.815Z,16.38
2022-08-26T07:31:17.040Z,18.17
2022-08-26T07:31:58.913Z,16.55
2022-08-26T07:32:41.933Z,14.60
2022-08-26T07:33:23.852Z,16.60
2022-08-26T07:34:07.409Z,15.60
2022-08-26T07:34:49.226Z,18.00
2022-08-26T07:35:30.974Z,16.17
2022-08-26T07:36:14.758Z,18.00
2022-08-26T07:36:57.001Z,16.25
2022-08-26T07:37:39.217Z,16.88
2022-08-26T07:38:21.146Z,17.00
2022-08-26T07:39:03.073Z,16.35
2022-08-26T07:39:45.139Z,15.98
2022-08-26T07:40:27.038Z,17.92
2022-08-26T07:41:08.931Z,16.25
2022-08-26T07:41:52.104Z,17.45
2022-08-26T07:42:34.414Z,14.65
2022-08-26T07:43:16.625Z,16.17
2022-08-26T07:43:59.321Z,19.30
2022-08-26T07:44:42.151Z,15.05
2022-08-26T07:45:24.282Z,17.08
2022-08-26T07:46:07.192Z,16.30
2022-08-26T07:46:52.269Z,26.75
2022-08-26T07:47:35.039Z,16.75
2022-08-26T07:48:17.914Z,15.98
2022-08-26T07:49:03.301Z,16.70
2022-08-26T07:49:45.130Z,18.90
2022-08-26T07:50:49.268Z,18.60
2022-08-26T07:51:28.677Z,16.25
2022-08-26T07:52:10.429Z,14.20
2022-08-26T07:52:54.069Z,15.40
2022-08-26T07:53:36.441Z,17.10
2022-08-26T07:54:18.710Z,19.08
2022-08-26T07:55:02.454Z,16.40
2022-08-26T07:55:46.997Z,17.15
2022-08-26T07:56:29.348Z,18.90
2022-08-26T07:57:11.163Z,16.05
2022-08-26T07:57:52.928Z,17.20
2022-08-26T07:58:34.792Z,17.27
2022-08-26T07:59:17.958Z,18.80
2022-08-26T08:00:00.371Z,15.82
2022-08-26T08:00:42.320Z,14.38
2022-08-26T08:01:26.056Z,16.50
2022-08-26T08:02:08.344Z,18.77
2022-08-26T08:02:53.049Z,14.05
2022-08-26T08:03:38.668Z,14.73
2022-08-26T08:04:26.126Z,14.95
2022-08-26T08:05:08.424Z,13.10
2022-08-26T08:05:50.215Z,13.90
2022-08-26T08:06:32.447Z,18.90
2022-08-26T08:07:14.215Z,14.70
2022-08-26T08:08:26.825Z,15.47
2022-08-26T08:08:57.973Z,16.95
2022-08-26T08:09:40.759Z,19.90
2022-08-26T08:10:25.365Z,24.45
2022-08-26T08:11:09.977Z,24.70
2022-08-26T08:11:52.960Z,35.50
2022-08-26T08:12:34.751Z,29.17
2022-08-26T08:13:18.216Z,28.05
2022-08-26T08:14:01.584Z,25.98
2022-08-26T08:14:45.390Z,31.70
2022-08-26T08:15:29.837Z,41.00
2022-08-26T08:16:12.452Z,40.70
2022-08-26T08:16:54.917Z,35.08
2022-08-26T08:17:37.022Z,23.80
2022-08-26T08:18:20.468Z,20.75
2022-08-26T08:19:02.578Z,18.67
2022-08-26T08:19:45.521Z,17.65
2022-08-26T08:20:28.349Z,16.60
2022-08-26T08:21:21.833Z,19.52
2022-08-26T08:22:11.363Z,15.85
2022-08-26T08:23:01.063Z,16.15
2022-08-26T08:23:43.209Z,16.17
2022-08-26T08:24:24.921Z,15.77
2022-08-26T08:25:10.347Z,17.98
2022-08-26T08:26:04.302Z,19.13
2022-08-26T08:26:46.051Z,16.02
2022-08-26T08:27:27.849Z,16.27
2022-08-26T08:28:09.868Z,15.55
2022-08-26T08:28:56.748Z,16.93
2022-08-26T08:29:39.696Z,16.50
2022-08-26T08:30:23.320Z,16.65
2022-08-26T08:31:05.933Z,15.98
2022-08-26T08:31:57.944Z,16.25
2022-08-26T08:32:40.605Z,16.20
2022-08-26T08:33:22.634Z,16.00
2022-08-26T08:34:04.390Z,16.70
2022-08-26T08:34:46.192Z,17.27
2022-08-26T08:35:27.944Z,18.88
2022-08-26T08:36:18.588Z,15.10
2022-08-26T08:37:02.600Z,15.57
2022-08-26T08:37:45.517Z,16.42
2022-08-26T08:38:28.063Z,17.42
2022-08-26T08:39:10.123Z,19.90
2022-08-26T08:39:51.947Z,17.48
2022-08-26T08:40:34.167Z,16.02
2022-08-26T08:41:47.690Z,16.40
2022-08-26T08:43:02.008Z,19.60
2022-08-26T08:43:47.333Z,17.70
2022-08-26T08:44:29.136Z,21.17
2022-08-26T08:45:17.734Z,19.40
2022-08-26T08:46:10.264Z,19.55
2022-08-26T08:46:56.121Z,17.13
2022-08-26T08:47:47.417Z,15.20
2022-08-26T08:48:32.163Z,17.15
2022-08-26T08:49:14.898Z,16.83
2022-08-26T08:50:02.619Z,16.15
2022-08-26T08:50:50.644Z,16.13
2022-08-26T08:51:50.929Z,14.40
2022-08-26T08:52:35.958Z,16.98
2022-08-26T08:53:34.460Z,15.63
2022-08-26T08:54:16.951Z,16.70
2022-08-26T08:54:58.729Z,15.93
2022-08-26T08:56:02.127Z,17.80
2022-08-26T08:56:46.399Z,15.50
2022-08-26T08:57:54.842Z,16.70
2022-08-26T08:58:57.296Z,15.70
2022-08-26T08:59:52.025Z,16.67
2022-08-26T09:00:45.339Z,13.70
2022-08-26T09:01:36.159Z,13.88
2022-08-26T09:02:40.123Z,14.00
2022-08-26T09:03:42.223Z,13.98
2022-08-26T09:04:41.649Z,14.63
2022-08-26T09:05:28.402Z,15.52
2022-08-26T09:06:17.450Z,14.68
2022-08-26T09:07:01.891Z,15.23
2022-08-26T09:07:48.838Z,16.73
2022-08-26T09:08:35.695Z,15.30
2022-08-26T09:09:27.798Z,13.75
2022-08-26T09:10:27.139Z,14.75
2022-08-26T09:11:08.954Z,12.38
2022-08-26T09:11:52.367Z,13.90
2022-08-26T09:12:34.720Z,13.88
2022-08-26T09:13:25.386Z,15.30
2022-08-26T09:14:09.627Z,14.77
2022-08-26T09:14:56.614Z,13.30
2022-08-26T09:16:08.237Z,15.60
2022-08-26T09:17:15.672Z,17.00
2022-08-26T09:18:22.630Z,16.13
2022-08-26T09:19:27.062Z,15.00
2022-08-26T09:20:41.021Z,15.10
2022-08-26T09:21:25.133Z,15.25
2022-08-26T09:22:09.735Z,13.80
2022-08-26T09:22:51.756Z,17.35
2022-08-26T09:23:36.958Z,14.43
2022-08-26T09:24:19.509Z,14.48
2022-08-26T09:25:11.080Z,16.67
2022-08-26T09:26:48.011Z,13.90
2022-08-26T09:27:37.674Z,16.55
2022-08-26T09:28:22.678Z,13.10
2022-08-26T09:29:27.863Z,13.32
2022-08-26T09:30:14.317Z,14.38
2022-08-26T09:31:15.193Z,15.38
2022-08-26T09:32:30.148Z,13.25
2022-08-26T09:33:17.409Z,14.32
2022-08-26T09:34:22.035Z,12.25
2022-08-26T09:35:30.885Z,13.65
2022-08-26T09:36:24.766Z,14.93
2022-08-26T09:37:07.957Z,16.65
2022-08-26T09:38:38.297Z,12.10
2022-08-26T09:39:24.672Z,14.93
2022-08-26T09:40:18.877Z,17.85
2022-08-26T09:41:06.509Z,12.87
2022-08-26T09:42:19.357Z,13.18
2022-08-26T09:43:15.991Z,13.02